This is the latest recevied weather packets stored in our database for station/object OE6PWE-13. If no packets are shown the sender has not sent any weather packets the latest 10 day(s).
| Time | Temp. | Humidity | Pressure | Rain* | Wind** | Luminosity | Snow |
|---|---|---|---|---|---|---|---|
| 1788637511 | 16.11° C | 99% | 1022 hPa | 0 mm | - | - | - |
| 1788636611 | 16.67° C | 99% | 1022 hPa | 0 mm | - | - | - |
| 1788635712 | 16.67° C | 99% | 1022 hPa | 0 mm | - | - | - |
| 1788634812 | 17.22° C | 99% | 1022 hPa | 0 mm | - | - | - |
| 1788633912 | 17.22° C | 98% | 1021 hPa | 0 mm | - | - | - |
| 1788633012 | 17.78° C | 98% | 1021 hPa | 0 mm | - | - | - |
| 1788632111 | 17.78° C | 96% | 1021 hPa | 0 mm | - | - | - |
| 1788631212 | 18.33° C | 95% | 1020 hPa | 0 mm | - | - | - |
| 1788630311 | 19.44° C | 93% | 1020 hPa | 0 mm | - | - | - |
| 1788629411 | 20° C | 90% | 1020 hPa | 0 mm | - | - | - |
| 1788628512 | 20.56° C | 88% | 1020 hPa | 0 mm | - | - | - |
| 1788627612 | 21.11° C | 86% | 1020 hPa | 0 mm | - | - | - |
| 1788626712 | 21.11° C | 83% | 1019 hPa | 0 mm | - | - | - |
| 1788625812 | 22.22° C | 81% | 1019 hPa | 0 mm | - | - | - |
| 1788624912 | 22.78° C | 78% | 1019 hPa | 0 mm | - | - | - |
| 1788624012 | 23.33° C | 76% | 1019 hPa | 0 mm | - | - | - |
| 1788623112 | 23.33° C | 75% | 1019 hPa | 0 mm | - | - | - |
| 1788622216 | 22.78° C | 74% | 1019 hPa | 0 mm | - | - | - |
| 1788621312 | 21.67° C | 78% | 1019 hPa | 0 mm | - | - | - |
| 1788620411 | 21.67° C | 78% | 1019 hPa | 0 mm | - | - | - |
| 1788619512 | 21.11° C | 80% | 1019 hPa | 0 mm | - | - | - |
| 1788618612 | 20° C | 87% | 1020 hPa | 0 mm | - | - | - |
| 1788617712 | 18.33° C | 94% | 1020 hPa | 0 mm | - | - | - |
| 1788616812 | 17.78° C | 97% | 1020 hPa | 0 mm | - | - | - |
| 1788615911 | 17.78° C | 99% | 1020 hPa | 0 mm | - | - | - |
* Rain latest hour (hover to see other rain measurements)
** Current wind speed in m/s (hover to see current wind gust speed)